Time,TemperatureF,DewpointF,PressureIn,WindDirection,WindDirectionDegrees,WindSpeedMPH,WindSpeedGustMPH,Humidity,HourlyPrecipIn,Conditions,Clouds,dailyrainin,SoftwareType,DateUTC
2013-01-20 00:00:00,42.8,35.5,29.59,NNE,22,0.0,0.0,75,0.00,,,0.00,WUHU216DAVISVP2,2013-01-20 05:00:00,
2013-01-20 00:02:00,43.0,35.3,29.58,NE,46,0.0,0.0,74,0.00,,,0.00,WUHU216DAVISVP2,2013-01-20 05:02:00,
2013-01-20 00:03:00,43.1,35.8,29.59,NE,55,0.0,0.0,75,0.00,,,0.00,WUHU216DAVISVP2,2013-01-20 05:03:00,
2013-01-20 00:08:00,43.4,35.7,29.58,NE,48,0.0,0.0,74,0.00,,,0.00,WUHU216DAVISVP2,2013-01-20 05:08:00,
2013-01-20 00:14:00,43.6,35.6,29.58,SE,124,0.0,0.0,73,0.00,,,0.00,WUHU216DAVISVP2,2013-01-20 05:14:00,
2013-01-20 00:19:00,43.6,35.6,29.58,NE,44,0.0,0.0,73,0.00,,,0.00,WUHU216DAVISVP2,2013-01-20 05:19:00,
2013-01-20 00:24:00,43.6,35.6,29.58,NE,44,0.0,0.0,73,0.00,,,0.00,WUHU216DAVISVP2,2013-01-20 05:24:00,
2013-01-20 00:29:00,43.8,35.4,29.57,ESE,123,0.0,0.0,72,0.00,,,0.00,WUHU216DAVISVP2,2013-01-20 05:29:00,
2013-01-20 00:34:00,43.8,35.8,29.57,SE,124,0.0,0.0,73,0.00,,,0.00,WUHU216DAVISVP2,2013-01-20 05:34:00,
2013-01-20 00:39:00,43.8,35.4,29.57,NE,51,0.0,0.0,72,0.00,,,0.00,WUHU216DAVISVP2,2013-01-20 05:39:00,
2013-01-20 00:44:00,43.6,35.2,29.57,NNE,21,0.0,0.0,72,0.00,,,0.00,WUHU216DAVISVP2,2013-01-20 05:44:00,
2013-01-20 00:49:00,43.3,34.2,29.57,ESE,109,0.0,0.0,70,0.00,,,0.00,WUHU216DAVISVP2,2013-01-20 05:49:00,
2013-01-20 00:55:00,43.1,34.0,29.58,ENE,77,0.0,0.0,70,0.00,,,0.00,WUHU216DAVISVP2,2013-01-20 05:55:00,
2013-01-20 01:00:00,43.0,33.9,29.57,ESE,123,0.0,0.0,70,0.00,,,0.00,WUHU216DAVISVP2,2013-01-20 06:00:00,
2013-01-20 01:05:00,42.9,33.4,29.58,North,10,0.0,0.0,69,0.00,,,0.00,WUHU216DAVISVP2,2013-01-20 06:05:00,
2013-01-20 01:10:00,43.0,33.2,29.57,NNE,32,0.0,0.0,68,0.00,,,0.00,WUHU216DAVISVP2,2013-01-20 06:10:00,
2013-01-20 01:15:00,43.0,31.7,29.58,NE,50,0.0,0.0,64,0.00,,,0.00,WUHU216DAVISVP2,2013-01-20 06:15:00,
2013-01-20 01:20:00,42.8,28.2,29.58,NNE,28,0.0,0.0,56,0.00,,,0.00,WUHU216DAVISVP2,2013-01-20 06:20:00,
2013-01-20 01:25:00,42.7,28.1,29.58,North,9,0.0,0.0,56,0.00,,,0.00,WUHU216DAVISVP2,2013-01-20 06:25:00,
2013-01-20 01:30:00,42.5,27.5,29.59,SSE,166,0.0,0.0,55,0.00,,,0.00,WUHU216DAVISVP2,2013-01-20 06:30:00,
2013-01-20 01:35:00,42.2,27.7,29.59,SSE,166,0.0,0.0,56,0.00,,,0.00,WUHU216DAVISVP2,2013-01-20 06:35:00,
2013-01-20 01:40:00,41.9,27.8,29.59,ENE,60,0.0,0.0,57,0.00,,,0.00,WUHU216DAVISVP2,2013-01-20 06:40:00,
2013-01-20 01:45:00,41.6,28.0,29.59,NE,43,0.0,0.0,58,0.00,,,0.00,WUHU216DAVISVP2,2013-01-20 06:45:00,
2013-01-20 01:50:00,41.6,28.0,29.59,NE,37,0.0,0.0,58,0.00,,,0.00,WUHU216DAVISVP2,2013-01-20 06:50:00,
2013-01-20 01:56:00,41.2,27.9,29.59,NE,52,0.0,0.0,59,0.00,,,0.00,WUHU216DAVISVP2,2013-01-20 06:56:00,
2013-01-20 02:01:00,41.2,28.4,29.59,East,80,0.0,0.0,60,0.00,,,0.00,WUHU216DAVISVP2,2013-01-20 07:01:00,
2013-01-20 02:03:00,41.3,28.9,29.59,ENE,76,0.0,0.0,61,0.00,,,0.00,WUHU216DAVISVP2,2013-01-20 07:03:00,
2013-01-20 02:06:00,41.4,28.9,29.60,NNW,344,0.0,0.0,61,0.00,,,0.00,WUHU216DAVISVP2,2013-01-20 07:06:00,
2013-01-20 02:11:00,41.3,28.9,29.59,ENE,76,0.0,0.0,61,0.00,,,0.00,WUHU216DAVISVP2,2013-01-20 07:11:00,
2013-01-20 02:16:00,41.4,28.9,29.61,NE,38,0.0,0.0,61,0.00,,,0.00,WUHU216DAVISVP2,2013-01-20 07:16:00,
2013-01-20 02:20:00,41.2,28.8,29.61,SSE,166,0.0,0.0,61,0.00,,,0.00,WUHU216DAVISVP2,2013-01-20 07:20:00,
2013-01-20 02:21:00,41.2,28.8,29.61,SSE,166,0.0,0.0,61,0.00,,,0.00,WUHU216DAVISVP2,2013-01-20 07:21:00,
2013-01-20 02:26:00,40.6,27.4,29.63,SSE,166,0.0,0.0,59,0.00,,,0.00,WUHU216DAVISVP2,2013-01-20 07:26:00,
2013-01-20 02:31:00,39.8,24.0,29.64,North,11,0.0,0.0,53,0.00,,,0.00,WUHU216DAVISVP2,2013-01-20 07:31:00,
2013-01-20 02:36:00,39.2,23.0,29.64,East,84,0.0,0.0,52,0.00,,,0.00,WUHU216DAVISVP2,2013-01-20 07:36:00,
2013-01-20 02:41:00,38.2,22.1,29.65,NE,54,0.0,0.0,52,0.00,,,0.00,WUHU216DAVISVP2,2013-01-20 07:41:00,
2013-01-20 02:47:00,37.8,22.2,29.66,NE,46,0.0,0.0,53,0.00,,,0.00,WUHU216DAVISVP2,2013-01-20 07:47:00,
2013-01-20 02:52:00,37.2,21.2,29.67,ENE,61,0.0,0.0,52,0.00,,,0.00,WUHU216DAVISVP2,2013-01-20 07:52:00,
2013-01-20 02:57:00,36.4,20.4,29.68,East,93,0.0,0.0,52,0.00,,,0.00,WUHU216DAVISVP2,2013-01-20 07:57:00,
2013-01-20 03:02:00,35.6,20.1,29.69,ENE,76,0.0,0.0,53,0.00,,,0.00,WUHU216DAVISVP2,2013-01-20 08:02:00,
2013-01-20 03:07:00,35.3,20.7,29.70,NNE,14,0.0,0.0,55,0.00,,,0.00,WUHU216DAVISVP2,2013-01-20 08:07:00,
2013-01-20 03:12:00,35.0,20.9,29.71,ENE,65,0.0,0.0,56,0.00,,,0.00,WUHU216DAVISVP2,2013-01-20 08:12:00,
2013-01-20 03:17:00,34.8,21.6,29.71,NE,53,0.0,0.0,58,0.00,,,0.00,WUHU216DAVISVP2,2013-01-20 08:17:00,
2013-01-20 03:22:00,34.3,19.8,29.72,NNE,29,0.0,0.0,55,0.00,,,0.00,WUHU216DAVISVP2,2013-01-20 08:22:00,
2013-01-20 03:27:00,33.2,17.0,29.73,East,84,0.0,0.0,51,0.00,,,0.00,WUHU216DAVISVP2,2013-01-20 08:27:00,
2013-01-20 03:32:00,32.6,16.9,29.74,NE,55,0.0,0.0,52,0.00,,,0.00,WUHU216DAVISVP2,2013-01-20 08:32:00,
2013-01-20 03:38:00,31.9,16.7,29.74,NNE,25,0.0,0.0,53,0.00,,,0.00,WUHU216DAVISVP2,2013-01-20 08:38:00,
2013-01-20 03:43:00,31.6,17.3,29.75,ENE,70,0.0,0.0,55,0.00,,,0.00,WUHU216DAVISVP2,2013-01-20 08:43:00,
2013-01-20 03:48:00,31.4,17.5,29.75,East,89,0.0,0.0,56,0.00,,,0.00,WUHU216DAVISVP2,2013-01-20 08:48:00,
2013-01-20 03:53:00,31.4,18.4,29.75,NNE,30,0.0,0.0,58,0.00,,,0.00,WUHU216DAVISVP2,2013-01-20 08:53:00,
2013-01-20 03:58:00,31.4,19.2,29.76,NE,34,0.0,0.0,60,0.00,,,0.00,WUHU216DAVISVP2,2013-01-20 08:58:00,
2013-01-20 04:03:00,30.9,19.8,29.76,NE,44,0.0,0.0,63,0.00,,,0.00,WUHU216DAVISVP2,2013-01-20 09:03:00,
2013-01-20 04:08:00,30.7,20.4,29.77,ENE,57,0.0,0.0,65,0.00,,,0.00,WUHU216DAVISVP2,2013-01-20 09:08:00,
2013-01-20 04:13:00,30.3,20.0,29.78,NE,38,0.0,0.0,65,0.00,,,0.00,WUHU216DAVISVP2,2013-01-20 09:13:00,
2013-01-20 04:18:00,29.8,19.5,29.78,NW,315,0.0,0.0,65,0.00,,,0.00,WUHU216DAVISVP2,2013-01-20 09:18:00,
2013-01-20 04:23:00,29.5,19.2,29.79,NE,49,0.0,0.0,65,0.00,,,0.00,WUHU216DAVISVP2,2013-01-20 09:23:00,
2013-01-20 04:28:00,29.2,19.7,29.79,ENE,76,0.0,0.0,67,0.00,,,0.00,WUHU216DAVISVP2,2013-01-20 09:28:00,
2013-01-20 04:33:00,29.0,18.0,29.79,SSE,166,0.0,0.0,63,0.00,,,0.00,WUHU216DAVISVP2,2013-01-20 09:33:00,
2013-01-20 04:38:00,28.9,18.3,29.79,SSE,166,0.0,0.0,64,0.00,,,0.00,WUHU216DAVISVP2,2013-01-20 09:38:00,
2013-01-20 04:43:00,28.6,18.4,29.80,ESE,123,0.0,0.0,65,0.00,,,0.00,WUHU216DAVISVP2,2013-01-20 09:43:00,
2013-01-20 04:49:00,28.1,17.9,29.81,SSE,166,0.0,0.0,65,0.00,,,0.00,WUHU216DAVISVP2,2013-01-20 09:49:00,
2013-01-20 04:54:00,27.9,17.4,29.81,ENE,76,0.0,0.0,64,0.00,,,0.00,WUHU216DAVISVP2,2013-01-20 09:54:00,
2013-01-20 04:59:00,27.7,16.8,29.82,SSE,166,0.0,0.0,63,0.00,,,0.00,WUHU216DAVISVP2,2013-01-20 09:59:00,
2013-01-20 05:04:00,27.5,16.2,29.82,ESE,109,0.0,0.0,62,0.00,,,0.00,WUHU216DAVISVP2,2013-01-20 10:04:00,
2013-01-20 05:09:00,27.3,16.0,29.82,ENE,64,0.0,0.0,62,0.00,,,0.00,WUHU216DAVISVP2,2013-01-20 10:09:00,
2013-01-20 05:15:00,27.1,15.5,29.82,SE,124,0.0,0.0,61,0.00,,,0.00,WUHU216DAVISVP2,2013-01-20 10:15:00,
2013-01-20 05:20:00,26.6,14.2,29.83,SSE,166,0.0,0.0,59,0.00,,,0.00,WUHU216DAVISVP2,2013-01-20 10:20:00,
2013-01-20 05:25:00,26.3,13.5,29.84,ESE,104,0.0,0.0,58,0.00,,,0.00,WUHU216DAVISVP2,2013-01-20 10:25:00,
2013-01-20 05:30:00,26.1,13.0,29.84,ENE,62,0.0,0.0,57,0.00,,,0.00,WUHU216DAVISVP2,2013-01-20 10:30:00,
2013-01-20 05:35:00,25.7,13.0,29.85,ENE,63,0.0,0.0,58,0.00,,,0.00,WUHU216DAVISVP2,2013-01-20 10:35:00,
2013-01-20 05:41:00,25.3,12.6,29.85,ENE,76,0.0,0.0,58,0.00,,,0.00,WUHU216DAVISVP2,2013-01-20 10:41:00,
2013-01-20 05:46:00,25.2,12.9,29.85,ENE,78,0.0,0.0,59,0.00,,,0.00,WUHU216DAVISVP2,2013-01-20 10:46:00,
2013-01-20 05:51:00,25.0,12.3,29.87,ESE,123,0.0,0.0,58,0.00,,,0.00,WUHU216DAVISVP2,2013-01-20 10:51:00,
2013-01-20 05:56:00,24.9,12.2,29.88,ENE,78,0.0,0.0,58,0.00,,,0.00,WUHU216DAVISVP2,2013-01-20 10:56:00,
2013-01-20 06:01:00,24.9,12.6,29.88,ESE,116,0.0,0.0,59,0.00,,,0.00,WUHU216DAVISVP2,2013-01-20 11:01:00,
2013-01-20 06:06:00,24.6,12.3,29.88,ENE,63,0.0,0.0,59,0.00,,,0.00,WUHU216DAVISVP2,2013-01-20 11:06:00,
2013-01-20 06:12:00,24.6,12.3,29.89,NNE,32,0.0,0.0,59,0.00,,,0.00,WUHU216DAVISVP2,2013-01-20 11:12:00,
2013-01-20 06:17:00,24.6,12.7,29.90,ENE,69,0.0,0.0,60,0.00,,,0.00,WUHU216DAVISVP2,2013-01-20 11:17:00,
2013-01-20 06:22:00,24.4,12.9,29.90,ENE,76,0.0,0.0,61,0.00,,,0.00,WUHU216DAVISVP2,2013-01-20 11:22:00,
2013-01-20 06:27:00,24.3,12.8,29.90,NE,53,0.0,0.0,61,0.00,,,0.00,WUHU216DAVISVP2,2013-01-20 11:27:00,
2013-01-20 06:32:00,24.3,12.8,29.91,NE,50,0.0,0.0,61,0.00,,,0.00,WUHU216DAVISVP2,2013-01-20 11:32:00,
2013-01-20 06:37:00,24.4,13.2,29.91,ENE,65,0.0,0.0,62,0.00,,,0.00,WUHU216DAVISVP2,2013-01-20 11:37:00,
2013-01-20 06:42:00,24.3,13.1,29.92,NE,51,0.0,0.0,62,0.00,,,0.00,WUHU216DAVISVP2,2013-01-20 11:42:00,
2013-01-20 06:47:00,24.3,13.1,29.92,NE,51,0.0,0.0,62,0.00,,,0.00,WUHU216DAVISVP2,2013-01-20 11:47:00,
2013-01-20 06:52:00,24.2,13.1,29.93,NE,41,0.0,0.0,62,0.00,,,0.00,WUHU216DAVISVP2,2013-01-20 11:52:00,
2013-01-20 06:55:00,24.2,13.0,29.94,NE,39,0.0,0.0,62,0.00,,,0.00,WUHU216DAVISVP2,2013-01-20 11:55:00,
2013-01-20 06:57:00,24.2,13.0,29.94,NE,39,0.0,0.0,62,0.00,,,0.00,WUHU216DAVISVP2,2013-01-20 11:57:00,
2013-01-20 07:03:00,23.7,13.7,29.94,ESE,123,0.0,0.0,65,0.00,,,0.00,WUHU216DAVISVP2,2013-01-20 12:03:00,
2013-01-20 07:08:00,23.4,13.8,29.95,NNE,32,0.0,0.0,66,0.00,,,0.00,WUHU216DAVISVP2,2013-01-20 12:08:00,
2013-01-20 07:13:00,23.3,14.0,29.95,SSE,166,0.0,0.0,67,0.00,,,0.00,WUHU216DAVISVP2,2013-01-20 12:13:00,
2013-01-20 07:18:00,23.1,14.2,29.95,South,173,0.0,0.0,68,0.00,,,0.00,WUHU216DAVISVP2,2013-01-20 12:18:00,
2013-01-20 07:23:00,22.9,14.6,29.96,ENE,72,0.0,0.0,70,0.00,,,0.00,WUHU216DAVISVP2,2013-01-20 12:23:00,
2013-01-20 07:28:00,22.6,14.7,29.97,ENE,60,0.0,0.0,71,0.00,,,0.00,WUHU216DAVISVP2,2013-01-20 12:28:00,
2013-01-20 07:33:00,22.5,14.9,29.96,NE,42,0.0,0.0,72,0.00,,,0.00,WUHU216DAVISVP2,2013-01-20 12:33:00,
2013-01-20 07:38:00,22.4,13.8,29.97,NE,50,0.0,0.0,69,0.00,,,0.00,WUHU216DAVISVP2,2013-01-20 12:38:00,
2013-01-20 07:43:00,22.5,12.9,29.98,NE,34,0.0,0.0,66,0.00,,,0.00,WUHU216DAVISVP2,2013-01-20 12:43:00,
2013-01-20 07:48:00,22.5,12.9,29.98,ENE,74,0.0,0.0,66,0.00,,,0.00,WUHU216DAVISVP2,2013-01-20 12:48:00,
2013-01-20 07:53:00,22.5,12.6,29.98,East,92,0.0,0.0,65,0.00,,,0.00,WUHU216DAVISVP2,2013-01-20 12:53:00,
2013-01-20 07:59:00,22.3,13.1,29.99,NE,53,0.0,0.0,67,0.00,,,0.00,WUHU216DAVISVP2,2013-01-20 12:59:00,
2013-01-20 08:04:00,21.7,12.8,29.99,East,79,0.0,0.0,68,0.00,,,0.00,WUHU216DAVISVP2,2013-01-20 13:04:00,
2013-01-20 08:09:00,21.4,12.9,30.00,East,98,0.0,0.0,69,0.00,,,0.00,WUHU216DAVISVP2,2013-01-20 13:09:00,
2013-01-20 08:14:00,20.9,13.6,30.00,ESE,112,0.0,0.0,73,0.00,,,0.00,WUHU216DAVISVP2,2013-01-20 13:14:00,
2013-01-20 08:19:00,20.5,12.6,30.01,East,98,0.0,0.0,71,0.00,,,0.00,WUHU216DAVISVP2,2013-01-20 13:19:00,
2013-01-20 08:24:00,20.5,12.0,30.01,ESE,118,0.0,0.0,69,0.00,,,0.00,WUHU216DAVISVP2,2013-01-20 13:24:00,
2013-01-20 08:29:00,20.8,11.9,30.02,ENE,57,0.0,0.0,68,0.00,,,0.00,WUHU216DAVISVP2,2013-01-20 13:29:00,
2013-01-20 08:34:00,20.8,11.3,30.02,ESE,107,0.0,0.0,66,0.00,,,0.00,WUHU216DAVISVP2,2013-01-20 13:34:00,
2013-01-20 08:39:00,20.8,11.3,30.03,ENE,61,0.0,0.0,66,0.00,,,0.00,WUHU216DAVISVP2,2013-01-20 13:39:00,
2013-01-20 08:44:00,20.8,10.9,30.04,ESE,105,0.0,0.0,65,0.00,,,0.00,WUHU216DAVISVP2,2013-01-20 13:44:00,
2013-01-20 08:49:00,20.9,10.6,30.04,ESE,123,0.0,0.0,64,0.00,,,0.00,WUHU216DAVISVP2,2013-01-20 13:49:00,
2013-01-20 08:55:00,21.1,10.8,30.04,ENE,64,0.0,0.0,64,0.00,,,0.00,WUHU216DAVISVP2,2013-01-20 13:55:00,
2013-01-20 09:00:00,21.2,10.6,30.04,SSE,166,0.0,0.0,63,0.00,,,0.00,WUHU216DAVISVP2,2013-01-20 14:00:00,
2013-01-20 09:05:00,21.2,10.6,30.05,SSE,167,0.0,0.0,63,0.00,,,0.00,WUHU216DAVISVP2,2013-01-20 14:05:00,
2013-01-20 09:10:00,21.2,10.6,30.05,SSE,167,0.0,0.0,63,0.00,,,0.00,WUHU216DAVISVP2,2013-01-20 14:10:00,
2013-01-20 09:15:00,21.2,10.6,30.06,ESE,120,0.0,0.0,63,0.00,,,0.00,WUHU216DAVISVP2,2013-01-20 14:15:00,
2013-01-20 09:20:00,21.2,10.9,30.06,SE,124,0.0,0.0,64,0.00,,,0.00,WUHU216DAVISVP2,2013-01-20 14:20:00,
2013-01-20 09:25:00,21.2,10.9,30.06,SE,124,0.0,0.0,64,0.00,,,0.00,WUHU216DAVISVP2,2013-01-20 14:25:00,
2013-01-20 09:30:00,21.3,10.7,30.06,ESE,121,0.0,0.0,63,0.00,,,0.00,WUHU216DAVISVP2,2013-01-20 14:30:00,
2013-01-20 09:35:00,21.3,10.7,30.07,ESE,121,0.0,0.0,63,0.00,,,0.00,WUHU216DAVISVP2,2013-01-20 14:35:00,
2013-01-20 09:40:00,21.4,10.8,30.07,ESE,105,0.0,0.0,63,0.00,,,0.00,WUHU216DAVISVP2,2013-01-20 14:40:00,
2013-01-20 09:46:00,21.4,10.8,30.07,SE,124,0.0,0.0,63,0.00,,,0.00,WUHU216DAVISVP2,2013-01-20 14:46:00,
2013-01-20 09:51:00,21.3,10.3,30.08,ENE,74,0.0,0.0,62,0.00,,,0.00,WUHU216DAVISVP2,2013-01-20 14:51:00,
2013-01-20 09:56:00,21.1,10.5,30.08,ESE,122,0.0,0.0,63,0.00,,,0.00,WUHU216DAVISVP2,2013-01-20 14:56:00,
2013-01-20 10:01:00,21.2,10.9,30.09,ESE,121,0.0,0.0,64,0.00,,,0.00,WUHU216DAVISVP2,2013-01-20 15:01:00,
2013-01-20 10:06:00,21.3,10.3,30.08,ESE,123,0.0,0.0,62,0.00,,,0.00,WUHU216DAVISVP2,2013-01-20 15:06:00,
2013-01-20 10:11:00,21.3,10.0,30.08,ESE,123,0.0,0.0,61,0.00,,,0.00,WUHU216DAVISVP2,2013-01-20 15:11:00,
2013-01-20 10:16:00,21.2,9.9,30.09,ESE,123,0.0,0.0,61,0.00,,,0.00,WUHU216DAVISVP2,2013-01-20 15:16:00,
2013-01-20 10:21:00,21.7,9.9,30.09,NNE,28,0.0,0.0,60,0.00,,,0.00,WUHU216DAVISVP2,2013-01-20 15:21:00,
2013-01-20 10:27:00,22.1,9.6,30.09,ESE,110,0.0,0.0,58,0.00,,,0.00,WUHU216DAVISVP2,2013-01-20 15:27:00,
2013-01-20 10:32:00,22.3,9.8,30.09,ESE,103,0.0,0.0,58,0.00,,,0.00,WUHU216DAVISVP2,2013-01-20 15:32:00,
2013-01-20 10:37:00,23.4,10.0,30.10,ESE,123,0.0,0.0,56,0.00,,,0.00,WUHU216DAVISVP2,2013-01-20 15:37:00,
2013-01-20 10:42:00,23.8,9.5,30.10,East,93,0.0,0.0,54,0.00,,,0.00,WUHU216DAVISVP2,2013-01-20 15:42:00,
2013-01-20 10:47:00,24.1,10.2,30.11,ESE,119,0.0,0.0,55,0.00,,,0.00,WUHU216DAVISVP2,2013-01-20 15:47:00,
2013-01-20 10:52:00,24.4,10.1,30.11,NE,40,0.0,0.0,54,0.00,,,0.00,WUHU216DAVISVP2,2013-01-20 15:52:00,
2013-01-20 10:57:00,24.7,10.4,30.11,NE,40,0.0,0.0,54,0.00,,,0.00,WUHU216DAVISVP2,2013-01-20 15:57:00,
2013-01-20 11:03:00,25.0,10.7,30.11,ENE,74,0.0,0.0,54,0.00,,,0.00,WUHU216DAVISVP2,2013-01-20 16:03:00,
2013-01-20 11:07:00,25.1,10.8,30.11,East,96,0.0,0.0,54,0.00,,,0.00,WUHU216DAVISVP2,2013-01-20 16:07:00,
2013-01-20 11:13:00,24.9,10.6,30.12,ESE,121,0.0,0.0,54,0.00,,,0.00,WUHU216DAVISVP2,2013-01-20 16:13:00,
2013-01-20 11:18:00,24.7,11.2,30.12,East,96,0.0,0.0,56,0.00,,,0.00,WUHU216DAVISVP2,2013-01-20 16:18:00,
2013-01-20 11:23:00,24.7,11.2,30.11,ENE,71,0.0,0.0,56,0.00,,,0.00,WUHU216DAVISVP2,2013-01-20 16:23:00,
2013-01-20 11:28:00,25.3,11.8,30.11,ESE,115,0.0,0.0,56,0.00,,,0.00,WUHU216DAVISVP2,2013-01-20 16:28:00,
2013-01-20 11:33:00,25.6,11.7,30.11,East,98,0.0,0.0,55,0.00,,,0.00,WUHU216DAVISVP2,2013-01-20 16:33:00,
2013-01-20 11:38:00,25.7,11.7,30.11,ESE,123,0.0,0.0,55,0.00,,,0.00,WUHU216DAVISVP2,2013-01-20 16:38:00,
2013-01-20 11:43:00,26.0,12.4,30.11,ESE,123,0.0,0.0,56,0.00,,,0.00,WUHU216DAVISVP2,2013-01-20 16:43:00,
2013-01-20 11:48:00,26.2,13.0,30.11,NNW,334,0.0,0.0,57,0.00,,,0.00,WUHU216DAVISVP2,2013-01-20 16:48:00,
2013-01-20 11:54:00,26.8,13.2,30.11,ENE,62,0.0,0.0,56,0.00,,,0.00,WUHU216DAVISVP2,2013-01-20 16:54:00,
2013-01-20 11:59:00,26.9,12.9,30.11,ESE,123,0.0,0.0,55,0.00,,,0.00,WUHU216DAVISVP2,2013-01-20 16:59:00,
2013-01-20 12:04:00,26.2,12.6,30.11,East,87,0.0,0.0,56,0.00,,,0.00,WUHU216DAVISVP2,2013-01-20 17:04:00,
2013-01-20 12:09:00,26.0,12.9,30.11,East,100,0.0,0.0,57,0.00,,,0.00,WUHU216DAVISVP2,2013-01-20 17:09:00,
2013-01-20 12:14:00,25.7,13.0,30.11,ESE,105,0.0,0.0,58,0.00,,,0.00,WUHU216DAVISVP2,2013-01-20 17:14:00,
2013-01-20 12:19:00,25.6,12.9,30.11,NE,40,0.0,0.0,58,0.00,,,0.00,WUHU216DAVISVP2,2013-01-20 17:19:00,
2013-01-20 12:24:00,25.2,12.5,30.11,ENE,78,0.0,0.0,58,0.00,,,0.00,WUHU216DAVISVP2,2013-01-20 17:24:00,
2013-01-20 12:29:00,25.5,13.6,30.11,East,101,0.0,0.0,60,0.00,,,0.00,WUHU216DAVISVP2,2013-01-20 17:29:00,
2013-01-20 12:34:00,26.5,14.5,30.11,ESE,107,0.0,0.0,60,0.00,,,0.00,WUHU216DAVISVP2,2013-01-20 17:34:00,
2013-01-20 12:39:00,27.6,15.6,30.10,NE,53,0.0,0.0,60,0.00,,,0.00,WUHU216DAVISVP2,2013-01-20 17:39:00,
2013-01-20 12:45:00,28.1,14.4,30.11,NE,55,0.0,0.0,56,0.00,,,0.00,WUHU216DAVISVP2,2013-01-20 17:45:00,
2013-01-20 12:50:00,27.3,13.7,30.10,ESE,111,0.0,0.0,56,0.00,,,0.00,WUHU216DAVISVP2,2013-01-20 17:50:00,
2013-01-20 12:55:00,26.4,12.8,30.10,ENE,70,0.0,0.0,56,0.00,,,0.00,WUHU216DAVISVP2,2013-01-20 17:55:00,
2013-01-20 13:00:00,26.1,13.8,30.10,ENE,61,0.0,0.0,59,0.00,,,0.00,WUHU216DAVISVP2,2013-01-20 18:00:00,
2013-01-20 13:05:00,27.4,13.8,30.09,ENE,63,0.0,0.0,56,0.00,,,0.00,WUHU216DAVISVP2,2013-01-20 18:05:00,
2013-01-20 13:10:00,27.8,13.7,30.09,NE,50,0.0,0.0,55,0.00,,,0.00,WUHU216DAVISVP2,2013-01-20 18:10:00,
2013-01-20 13:16:00,28.1,14.4,30.09,East,98,0.0,0.0,56,0.00,,,0.00,WUHU216DAVISVP2,2013-01-20 18:16:00,
2013-01-20 13:21:00,28.3,14.2,30.08,East,96,0.0,0.0,55,0.00,,,0.00,WUHU216DAVISVP2,2013-01-20 18:21:00,
2013-01-20 13:26:00,28.0,13.9,30.08,East,98,0.0,0.0,55,0.00,,,0.00,WUHU216DAVISVP2,2013-01-20 18:26:00,
2013-01-20 13:31:00,27.9,13.4,30.08,NE,45,0.0,0.0,54,0.00,,,0.00,WUHU216DAVISVP2,2013-01-20 18:31:00,
2013-01-20 13:32:00,27.8,12.9,30.08,ENE,60,0.0,0.0,53,0.00,,,0.00,WUHU216DAVISVP2,2013-01-20 18:32:00,
2013-01-20 13:36:00,27.7,13.6,30.08,ESE,106,0.0,0.0,55,0.00,,,0.00,WUHU216DAVISVP2,2013-01-20 18:36:00,
2013-01-20 13:41:00,27.8,12.9,30.08,ENE,60,0.0,0.0,53,0.00,,,0.00,WUHU216DAVISVP2,2013-01-20 18:41:00,
2013-01-20 13:46:00,27.0,12.1,30.09,ESE,113,0.0,0.0,53,0.00,,,0.00,WUHU216DAVISVP2,2013-01-20 18:46:00,
2013-01-20 13:51:00,26.2,12.2,30.09,East,81,0.0,0.0,55,0.00,,,0.00,WUHU216DAVISVP2,2013-01-20 18:51:00,
2013-01-20 13:57:00,26.0,12.4,30.10,NE,56,0.0,0.0,56,0.00,,,0.00,WUHU216DAVISVP2,2013-01-20 18:57:00,
2013-01-20 14:02:00,25.9,12.4,30.10,ENE,75,0.0,0.0,56,0.00,,,0.00,WUHU216DAVISVP2,2013-01-20 19:02:00,
2013-01-20 14:07:00,25.9,12.8,30.10,ENE,74,0.0,0.0,57,0.00,,,0.00,WUHU216DAVISVP2,2013-01-20 19:07:00,
2013-01-20 14:12:00,25.8,13.1,30.10,ENE,70,0.0,0.0,58,0.00,,,0.00,WUHU216DAVISVP2,2013-01-20 19:12:00,
2013-01-20 14:17:00,25.9,12.8,30.10,ENE,69,0.0,0.0,57,0.00,,,0.00,WUHU216DAVISVP2,2013-01-20 19:17:00,
2013-01-20 14:22:00,25.8,12.7,30.10,East,100,0.0,0.0,57,0.00,,,0.00,WUHU216DAVISVP2,2013-01-20 19:22:00,
2013-01-20 14:27:00,25.6,12.9,30.10,NE,42,0.0,0.0,58,0.00,,,0.00,WUHU216DAVISVP2,2013-01-20 19:27:00,
2013-01-20 14:33:00,25.3,12.6,30.11,NE,56,0.0,0.0,58,0.00,,,0.00,WUHU216DAVISVP2,2013-01-20 19:33:00,
2013-01-20 14:38:00,25.3,12.6,30.11,ENE,62,0.0,0.0,58,0.00,,,0.00,WUHU216DAVISVP2,2013-01-20 19:38:00,
2013-01-20 14:43:00,25.2,12.5,30.11,SSE,167,0.0,0.0,58,0.00,,,0.00,WUHU216DAVISVP2,2013-01-20 19:43:00,
2013-01-20 14:48:00,25.3,12.6,30.10,SSE,167,0.0,0.0,58,0.00,,,0.00,WUHU216DAVISVP2,2013-01-20 19:48:00,
2013-01-20 14:53:00,25.3,12.6,30.10,SSE,167,0.0,0.0,58,0.00,,,0.00,WUHU216DAVISVP2,2013-01-20 19:53:00,
2013-01-20 14:58:00,25.5,12.4,30.11,NNE,28,0.0,0.0,57,0.00,,,0.00,WUHU216DAVISVP2,2013-01-20 19:58:00,
2013-01-20 15:03:00,25.3,12.6,30.11,East,101,0.0,0.0,58,0.00,,,0.00,WUHU216DAVISVP2,2013-01-20 20:03:00,
2013-01-20 15:08:00,25.1,12.4,30.11,ESE,113,0.0,0.0,58,0.00,,,0.00,WUHU216DAVISVP2,2013-01-20 20:08:00,
2013-01-20 15:13:00,25.1,12.8,30.11,ENE,59,0.0,0.0,59,0.00,,,0.00,WUHU216DAVISVP2,2013-01-20 20:13:00,
2013-01-20 15:18:00,25.1,12.4,30.11,East,80,0.0,0.0,58,0.00,,,0.00,WUHU216DAVISVP2,2013-01-20 20:18:00,
2013-01-20 15:23:00,24.9,12.2,30.11,East,90,0.0,0.0,58,0.00,,,0.00,WUHU216DAVISVP2,2013-01-20 20:23:00,
2013-01-20 15:28:00,24.8,12.5,30.11,NE,53,0.0,0.0,59,0.00,,,0.00,WUHU216DAVISVP2,2013-01-20 20:28:00,
2013-01-20 15:33:00,24.9,12.6,30.12,ESE,102,0.0,0.0,59,0.00,,,0.00,WUHU216DAVISVP2,2013-01-20 20:33:00,
2013-01-20 15:38:00,24.9,12.6,30.12,East,81,0.0,0.0,59,0.00,,,0.00,WUHU216DAVISVP2,2013-01-20 20:38:00,
2013-01-20 15:44:00,24.8,12.5,30.12,ENE,75,0.0,0.0,59,0.00,,,0.00,WUHU216DAVISVP2,2013-01-20 20:44:00,
2013-01-20 15:49:00,24.7,12.4,30.12,NE,40,0.0,0.0,59,0.00,,,0.00,WUHU216DAVISVP2,2013-01-20 20:49:00,
2013-01-20 15:54:00,24.5,12.2,30.12,ENE,57,0.0,0.0,59,0.00,,,0.00,WUHU216DAVISVP2,2013-01-20 20:54:00,
2013-01-20 15:59:00,24.5,12.2,30.12,ESE,119,0.0,0.0,59,0.00,,,0.00,WUHU216DAVISVP2,2013-01-20 20:59:00,
2013-01-20 16:04:00,24.4,12.5,30.13,East,99,0.0,0.0,60,0.00,,,0.00,WUHU216DAVISVP2,2013-01-20 21:04:00,
2013-01-20 16:09:00,24.5,12.6,30.13,NE,47,0.0,0.0,60,0.00,,,0.00,WUHU216DAVISVP2,2013-01-20 21:09:00,
2013-01-20 16:14:00,24.4,12.5,30.13,ENE,63,0.0,0.0,60,0.00,,,0.00,WUHU216DAVISVP2,2013-01-20 21:14:00,
2013-01-20 16:19:00,24.4,12.5,30.13,ENE,63,0.0,0.0,60,0.00,,,0.00,WUHU216DAVISVP2,2013-01-20 21:19:00,
2013-01-20 16:24:00,24.3,13.2,30.12,ESE,119,0.0,0.0,62,0.00,,,0.00,WUHU216DAVISVP2,2013-01-20 21:24:00,
2013-01-20 16:29:00,24.3,12.8,30.12,East,99,0.0,0.0,61,0.00,,,0.00,WUHU216DAVISVP2,2013-01-20 21:29:00,
2013-01-20 16:35:00,24.2,12.7,30.12,ENE,67,0.0,0.0,61,0.00,,,0.00,WUHU216DAVISVP2,2013-01-20 21:35:00,
2013-01-20 16:40:00,24.1,13.0,30.12,ESE,121,0.0,0.0,62,0.00,,,0.00,WUHU216DAVISVP2,2013-01-20 21:40:00,
2013-01-20 16:45:00,24.0,12.9,30.13,ESE,123,0.0,0.0,62,0.00,,,0.00,WUHU216DAVISVP2,2013-01-20 21:45:00,
2013-01-20 16:50:00,24.0,12.9,30.13,ESE,123,0.0,0.0,62,0.00,,,0.00,WUHU216DAVISVP2,2013-01-20 21:50:00,
2013-01-20 16:55:00,23.8,13.1,30.13,ENE,67,0.0,0.0,63,0.00,,,0.00,WUHU216DAVISVP2,2013-01-20 21:55:00,
2013-01-20 17:00:00,23.8,13.1,30.13,East,97,0.0,0.0,63,0.00,,,0.00,WUHU216DAVISVP2,2013-01-20 22:00:00,
2013-01-20 17:05:00,23.6,12.5,30.13,ENE,63,0.0,0.0,62,0.00,,,0.00,WUHU216DAVISVP2,2013-01-20 22:05:00,
2013-01-20 17:10:00,23.6,12.5,30.13,WNW,293,0.0,0.0,62,0.00,,,0.00,WUHU216DAVISVP2,2013-01-20 22:10:00,
2013-01-20 17:15:00,23.7,13.0,30.13,ENE,78,0.0,0.0,63,0.00,,,0.00,WUHU216DAVISVP2,2013-01-20 22:15:00,
2013-01-20 17:20:00,23.6,12.9,30.13,NE,53,0.0,0.0,63,0.00,,,0.00,WUHU216DAVISVP2,2013-01-20 22:20:00,
2013-01-20 17:25:00,23.6,12.9,30.13,NE,53,0.0,0.0,63,0.00,,,0.00,WUHU216DAVISVP2,2013-01-20 22:25:00,
2013-01-20 17:30:00,23.3,12.6,30.14,ESE,105,0.0,0.0,63,0.00,,,0.00,WUHU216DAVISVP2,2013-01-20 22:30:00,
2013-01-20 17:36:00,23.2,12.9,30.14,NE,41,0.0,0.0,64,0.00,,,0.00,WUHU216DAVISVP2,2013-01-20 22:36:00,
2013-01-20 17:41:00,23.2,12.9,30.14,East,82,0.0,0.0,64,0.00,,,0.00,WUHU216DAVISVP2,2013-01-20 22:41:00,
2013-01-20 17:46:00,23.1,12.8,30.14,ENE,62,0.0,0.0,64,0.00,,,0.00,WUHU216DAVISVP2,2013-01-20 22:46:00,
2013-01-20 17:51:00,23.1,12.8,30.13,ENE,72,0.0,0.0,64,0.00,,,0.00,WUHU216DAVISVP2,2013-01-20 22:51:00,
2013-01-20 17:56:00,23.0,12.3,30.14,ENE,57,0.0,0.0,63,0.00,,,0.00,WUHU216DAVISVP2,2013-01-20 22:56:00,
2013-01-20 18:01:00,22.9,12.6,30.14,ENE,71,0.0,0.0,64,0.00,,,0.00,WUHU216DAVISVP2,2013-01-20 23:01:00,
2013-01-20 18:06:00,22.8,12.5,30.14,East,90,0.0,0.0,64,0.00,,,0.00,WUHU216DAVISVP2,2013-01-20 23:06:00,
2013-01-20 18:11:00,22.8,12.5,30.14,ESE,122,0.0,0.0,64,0.00,,,0.00,WUHU216DAVISVP2,2013-01-20 23:11:00,
2013-01-20 18:15:00,22.8,12.1,30.14,East,79,0.0,0.0,63,0.00,,,0.00,WUHU216DAVISVP2,2013-01-20 23:15:00,
2013-01-20 18:16:00,22.8,12.1,30.14,East,79,0.0,0.0,63,0.00,,,0.00,WUHU216DAVISVP2,2013-01-20 23:16:00,
2013-01-20 18:21:00,22.8,12.1,30.14,East,79,0.0,0.0,63,0.00,,,0.00,WUHU216DAVISVP2,2013-01-20 23:21:00,
2013-01-20 18:27:00,22.9,12.9,30.14,ENE,67,0.0,0.0,65,0.00,,,0.00,WUHU216DAVISVP2,2013-01-20 23:27:00,
2013-01-20 18:32:00,22.8,12.8,30.14,ENE,69,0.0,0.0,65,0.00,,,0.00,WUHU216DAVISVP2,2013-01-20 23:32:00,
2013-01-20 18:37:00,22.9,13.3,30.14,NE,55,0.0,0.0,66,0.00,,,0.00,WUHU216DAVISVP2,2013-01-20 23:37:00,
2013-01-20 18:42:00,22.7,12.8,30.14,NE,45,0.0,0.0,65,0.00,,,0.00,WUHU216DAVISVP2,2013-01-20 23:42:00,
2013-01-20 18:47:00,22.5,12.2,30.14,NE,55,0.0,0.0,64,0.00,,,0.00,WUHU216DAVISVP2,2013-01-20 23:47:00,
2013-01-20 18:52:00,22.4,12.1,30.14,ESE,121,0.0,0.0,64,0.00,,,0.00,WUHU216DAVISVP2,2013-01-20 23:52:00,
2013-01-20 18:57:00,22.3,12.0,30.14,ESE,123,0.0,0.0,64,0.00,,,0.00,WUHU216DAVISVP2,2013-01-20 23:57:00,
2013-01-20 19:02:00,22.2,11.6,30.15,East,92,0.0,0.0,63,0.00,,,0.00,WUHU216DAVISVP2,2013-01-21 00:02:00,
2013-01-20 19:07:00,22.2,11.9,30.15,ENE,67,0.0,0.0,64,0.00,,,0.00,WUHU216DAVISVP2,2013-01-21 00:07:00,
2013-01-20 19:12:00,22.2,11.6,30.15,ENE,65,0.0,0.0,63,0.00,,,0.00,WUHU216DAVISVP2,2013-01-21 00:12:00,
2013-01-20 19:17:00,22.2,11.9,30.15,NNE,31,0.0,0.0,64,0.00,,,0.00,WUHU216DAVISVP2,2013-01-21 00:17:00,
2013-01-20 19:23:00,22.3,12.0,30.15,ENE,63,0.0,0.0,64,0.00,,,0.00,WUHU216DAVISVP2,2013-01-21 00:23:00,
2013-01-20 19:28:00,22.4,11.8,30.15,ENE,65,0.0,0.0,63,0.00,,,0.00,WUHU216DAVISVP2,2013-01-21 00:28:00,
2013-01-20 19:33:00,22.4,12.1,30.15,NE,51,0.0,0.0,64,0.00,,,0.00,WUHU216DAVISVP2,2013-01-21 00:33:00,
2013-01-20 19:38:00,22.3,11.7,30.15,ENE,71,0.0,0.0,63,0.00,,,0.00,WUHU216DAVISVP2,2013-01-21 00:38:00,
2013-01-20 19:43:00,22.2,11.2,30.15,ENE,63,0.0,0.0,62,0.00,,,0.00,WUHU216DAVISVP2,2013-01-21 00:43:00,
2013-01-20 19:48:00,22.2,11.2,30.15,ENE,57,0.0,0.0,62,0.00,,,0.00,WUHU216DAVISVP2,2013-01-21 00:48:00,
2013-01-20 19:53:00,22.2,11.2,30.15,NE,51,0.0,0.0,62,0.00,,,0.00,WUHU216DAVISVP2,2013-01-21 00:53:00,
2013-01-20 19:58:00,22.2,11.6,30.15,East,93,0.0,0.0,63,0.00,,,0.00,WUHU216DAVISVP2,2013-01-21 00:58:00,
2013-01-20 20:03:00,22.3,12.0,30.15,East,93,0.0,0.0,64,0.00,,,0.00,WUHU216DAVISVP2,2013-01-21 01:03:00,
2013-01-20 20:08:00,22.3,12.0,30.15,East,93,0.0,0.0,64,0.00,,,0.00,WUHU216DAVISVP2,2013-01-21 01:08:00,
2013-01-20 20:13:00,22.2,12.3,30.15,East,93,0.0,0.0,65,0.00,,,0.00,WUHU216DAVISVP2,2013-01-21 01:13:00,
2013-01-20 20:19:00,22.1,12.5,30.15,East,87,0.0,0.0,66,0.00,,,0.00,WUHU216DAVISVP2,2013-01-21 01:19:00,
2013-01-20 20:24:00,22.1,11.8,30.15,ENE,69,0.0,0.0,64,0.00,,,0.00,WUHU216DAVISVP2,2013-01-21 01:24:00,
2013-01-20 20:29:00,22.0,11.7,30.14,East,82,0.0,0.0,64,0.00,,,0.00,WUHU216DAVISVP2,2013-01-21 01:29:00,
2013-01-20 20:34:00,21.9,12.0,30.15,ENE,69,0.0,0.0,65,0.00,,,0.00,WUHU216DAVISVP2,2013-01-21 01:34:00,
2013-01-20 20:39:00,21.8,12.2,30.14,NE,54,0.0,0.0,66,0.00,,,0.00,WUHU216DAVISVP2,2013-01-21 01:39:00,
2013-01-20 20:44:00,21.7,11.4,30.14,ENE,57,0.0,0.0,64,0.00,,,0.00,WUHU216DAVISVP2,2013-01-21 01:44:00,
2013-01-20 20:49:00,21.6,10.9,30.15,ENE,77,0.0,0.0,63,0.00,,,0.00,WUHU216DAVISVP2,2013-01-21 01:49:00,
2013-01-20 20:54:00,21.6,10.6,30.15,NE,52,0.0,0.0,62,0.00,,,0.00,WUHU216DAVISVP2,2013-01-21 01:54:00,
2013-01-20 21:00:00,21.5,10.1,30.15,NNE,29,0.0,0.0,61,0.00,,,0.00,WUHU216DAVISVP2,2013-01-21 02:00:00,
2013-01-20 21:05:00,21.6,10.2,30.15,NE,51,0.0,0.0,61,0.00,,,0.00,WUHU216DAVISVP2,2013-01-21 02:05:00,
2013-01-20 21:10:00,21.6,10.6,30.15,ENE,65,0.0,0.0,62,0.00,,,0.00,WUHU216DAVISVP2,2013-01-21 02:10:00,
2013-01-20 21:15:00,21.6,10.6,30.14,East,100,0.0,0.0,62,0.00,,,0.00,WUHU216DAVISVP2,2013-01-21 02:15:00,
2013-01-20 21:20:00,21.5,10.5,30.15,NE,43,0.0,0.0,62,0.00,,,0.00,WUHU216DAVISVP2,2013-01-21 02:20:00,
2013-01-20 21:25:00,21.4,10.4,30.15,ENE,62,0.0,0.0,62,0.00,,,0.00,WUHU216DAVISVP2,2013-01-21 02:25:00,
2013-01-20 21:30:00,21.5,10.5,30.15,ENE,69,0.0,0.0,62,0.00,,,0.00,WUHU216DAVISVP2,2013-01-21 02:30:00,
2013-01-20 21:35:00,21.5,10.5,30.15,NNE,16,0.0,0.0,62,0.00,,,0.00,WUHU216DAVISVP2,2013-01-21 02:35:00,
2013-01-20 21:40:00,21.4,10.4,30.15,NNE,31,0.0,0.0,62,0.00,,,0.00,WUHU216DAVISVP2,2013-01-21 02:40:00,
2013-01-20 21:46:00,21.3,10.7,30.14,ENE,74,0.0,0.0,63,0.00,,,0.00,WUHU216DAVISVP2,2013-01-21 02:46:00,
2013-01-20 21:51:00,21.3,10.7,30.15,ENE,74,0.0,0.0,63,0.00,,,0.00,WUHU216DAVISVP2,2013-01-21 02:51:00,
2013-01-20 21:56:00,21.3,10.7,30.15,East,80,0.0,0.0,63,0.00,,,0.00,WUHU216DAVISVP2,2013-01-21 02:56:00,
2013-01-20 22:01:00,21.3,11.1,30.14,ENE,76,0.0,0.0,64,0.00,,,0.00,WUHU216DAVISVP2,2013-01-21 03:01:00,
2013-01-20 22:06:00,21.3,11.4,30.14,ENE,76,0.0,0.0,65,0.00,,,0.00,WUHU216DAVISVP2,2013-01-21 03:06:00,
2013-01-20 22:09:00,21.3,11.4,30.14,NE,44,0.0,0.0,65,0.00,,,0.00,WUHU216DAVISVP2,2013-01-21 03:09:00,
2013-01-20 22:11:00,21.3,11.4,30.14,NE,44,0.0,0.0,65,0.00,,,0.00,WUHU216DAVISVP2,2013-01-21 03:11:00,
2013-01-20 22:16:00,21.2,10.6,30.14,NE,47,0.0,0.0,63,0.00,,,0.00,WUHU216DAVISVP2,2013-01-21 03:16:00,
2013-01-20 22:21:00,21.2,10.6,30.14,ENE,59,0.0,0.0,63,0.00,,,0.00,WUHU216DAVISVP2,2013-01-21 03:21:00,
2013-01-20 22:26:00,21.1,10.5,30.14,NE,48,0.0,0.0,63,0.00,,,0.00,WUHU216DAVISVP2,2013-01-21 03:26:00,
2013-01-20 22:32:00,21.0,10.4,30.14,East,84,0.0,0.0,63,0.00,,,0.00,WUHU216DAVISVP2,2013-01-21 03:32:00,
2013-01-20 22:37:00,21.1,10.5,30.14,ENE,60,0.0,0.0,63,0.00,,,0.00,WUHU216DAVISVP2,2013-01-21 03:37:00,
2013-01-20 22:42:00,21.2,11.0,30.14,ENE,59,0.0,0.0,64,0.00,,,0.00,WUHU216DAVISVP2,2013-01-21 03:42:00,
2013-01-20 22:47:00,21.2,11.0,30.14,East,82,0.0,0.0,64,0.00,,,0.00,WUHU216DAVISVP2,2013-01-21 03:47:00,
2013-01-20 22:52:00,21.1,10.9,30.13,ENE,69,0.0,0.0,64,0.00,,,0.00,WUHU216DAVISVP2,2013-01-21 03:52:00,
2013-01-20 22:57:00,21.2,11.3,30.13,ENE,71,0.0,0.0,65,0.00,,,0.00,WUHU216DAVISVP2,2013-01-21 03:57:00,
2013-01-20 23:02:00,21.0,10.8,30.12,ENE,57,0.0,0.0,64,0.00,,,0.00,WUHU216DAVISVP2,2013-01-21 04:02:00,
2013-01-20 23:07:00,20.9,11.0,30.13,ENE,57,0.0,0.0,65,0.00,,,0.00,WUHU216DAVISVP2,2013-01-21 04:07:00,
2013-01-20 23:12:00,20.9,11.0,30.12,ENE,57,0.0,0.0,65,0.00,,,0.00,WUHU216DAVISVP2,2013-01-21 04:12:00,
2013-01-20 23:17:00,20.8,10.9,30.12,ENE,67,0.0,0.0,65,0.00,,,0.00,WUHU216DAVISVP2,2013-01-21 04:17:00,
2013-01-20 23:22:00,20.8,10.9,30.12,ENE,66,0.0,0.0,65,0.00,,,0.00,WUHU216DAVISVP2,2013-01-21 04:22:00,
2013-01-20 23:27:00,20.9,11.4,30.12,SW,232,0.0,0.0,66,0.00,,,0.00,WUHU216DAVISVP2,2013-01-21 04:27:00,
2013-01-20 23:32:00,21.0,11.8,30.12,SSE,167,0.0,0.0,67,0.00,,,0.00,WUHU216DAVISVP2,2013-01-21 04:32:00,
2013-01-20 23:38:00,20.8,11.6,30.12,SSE,167,0.0,0.0,67,0.00,,,0.00,WUHU216DAVISVP2,2013-01-21 04:38:00,
2013-01-20 23:43:00,20.8,11.6,30.12,SSE,167,0.0,0.0,67,0.00,,,0.00,WUHU216DAVISVP2,2013-01-21 04:43:00,
2013-01-20 23:48:00,20.7,11.5,30.12,SSE,167,0.0,0.0,67,0.00,,,0.00,WUHU216DAVISVP2,2013-01-21 04:48:00,
2013-01-20 23:53:00,20.7,11.9,30.12,SSE,167,0.0,0.0,68,0.00,,,0.00,WUHU216DAVISVP2,2013-01-21 04:53:00,
2013-01-20 23:58:00,20.6,11.4,30.12,SSE,167,0.0,0.0,67,0.00,,,0.00,WUHU216DAVISVP2,2013-01-21 04:58:00,